Time;durP1;ratioP1;P1;durP2;ratioP2;P2;SDS_P1;SDS_P2;PMS_P1;PMS_P2;Temp;Humidity;BMP_temperature;BMP_pressure;BME280_temperature;BME280_humidity;BME280_pressure;Samples;Min_cycle;Max_cycle;Signal;HPM_P1;HPM_P2
2023/12/17 00:02:20;;;;;;;10.73;2.63;;;;;;;;;;5043308;28;20639;-72
2023/12/17 00:04:47;;;;;;;16.27;3.17;;;;;;;;;;5045138;28;20059;-73
2023/12/17 00:07:14;;;;;;;14.43;2.88;;;;;;;;;;5053148;28;20048;-72
2023/12/17 00:09:43;;;;;;;17.42;2.95;;;;;;;;;;5050409;28;20045;-72
2023/12/17 00:12:10;;;;;;;8.98;3.15;;;;;;;;;;5035334;28;20491;-72
2023/12/17 00:14:37;;;;;;;12.68;3.28;;;;;;;;;;5054061;28;20047;-72
2023/12/17 00:17:05;;;;;;;9.30;2.53;;;;;;;;;;5053490;28;20048;-72
2023/12/17 00:19:32;;;;;;;12.27;2.78;;;;;;;;;;5034581;28;20049;-72
2023/12/17 00:21:59;;;;;;;12.30;2.72;;;;;;;;;;5056986;28;20090;-72
2023/12/17 00:24:26;;;;;;;13.23;2.95;;;;;;;;;;5023706;28;20045;-72
2023/12/17 00:26:57;;;;;;;14.07;3.17;;;;;;;;;;5030857;28;20540;-72
2023/12/17 00:29:25;;;;;;;13.57;2.80;;;;;;;;;;5047285;28;20041;-72
2023/12/17 00:31:52;;;;;;;15.23;2.88;;;;;;;;;;5060560;28;20052;-72
2023/12/17 00:34:19;;;;;;;11.82;3.92;;;;;;;;;;5047108;28;20068;-72
2023/12/17 00:36:46;;;;;;;11.68;3.10;;;;;;;;;;5030849;28;20048;-73
2023/12/17 00:39:14;;;;;;;15.40;3.38;;;;;;;;;;5033472;28;20065;-72
2023/12/17 00:41:41;;;;;;;12.43;3.58;;;;;;;;;;5051642;28;20090;-72
2023/12/17 00:44:10;;;;;;;17.77;3.28;;;;;;;;;;5053116;28;20071;-73
2023/12/17 00:46:37;;;;;;;14.70;3.20;;;;;;;;;;5034603;28;20056;-72
2023/12/17 00:49:04;;;;;;;13.93;3.10;;;;;;;;;;5050046;28;20056;-72
2023/12/17 00:51:32;;;;;;;12.60;3.35;;;;;;;;;;5033909;28;20060;-72
2023/12/17 00:53:59;;;;;;;11.00;2.17;;;;;;;;;;5042189;28;20405;-72
2023/12/17 00:56:26;;;;;;;15.43;2.72;;;;;;;;;;5042967;28;20469;-72
2023/12/17 00:58:53;;;;;;;12.68;2.72;;;;;;;;;;5029039;28;20056;-72
2023/12/17 01:01:22;;;;;;;8.95;2.00;;;;;;;;;;5032521;28;20400;-72
2023/12/17 01:03:49;;;;;;;12.55;3.03;;;;;;;;;;5046265;28;20053;-73
2023/12/17 01:06:16;;;;;;;12.25;2.88;;;;;;;;;;5039566;28;20128;-72
2023/12/17 01:08:43;;;;;;;13.32;2.83;;;;;;;;;;5032710;28;20052;-72
2023/12/17 01:11:11;;;;;;;12.35;2.38;;;;;;;;;;5047459;28;20508;-72
2023/12/17 01:13:38;;;;;;;21.35;2.67;;;;;;;;;;5018171;28;20382;-72
2023/12/17 01:16:05;;;;;;;13.57;2.50;;;;;;;;;;5049711;28;20056;-72
2023/12/17 01:18:34;;;;;;;21.15;2.83;;;;;;;;;;5027200;28;20280;-72
2023/12/17 01:21:02;;;;;;;22.73;3.17;;;;;;;;;;5051337;28;20379;-72
2023/12/17 01:23:29;;;;;;;13.05;2.60;;;;;;;;;;5051066;28;20049;-72
2023/12/17 01:25:56;;;;;;;18.88;3.35;;;;;;;;;;5053390;28;20055;-72
2023/12/17 01:28:23;;;;;;;14.02;3.10;;;;;;;;;;5049582;28;20056;-72
2023/12/17 01:30:50;;;;;;;10.50;2.90;;;;;;;;;;5051312;28;20052;-72
2023/12/17 01:33:18;;;;;;;13.30;2.67;;;;;;;;;;5036759;28;20053;-72
2023/12/17 01:35:46;;;;;;;14.95;2.80;;;;;;;;;;5057357;28;20135;-72
2023/12/17 01:38:14;;;;;;;13.40;3.28;;;;;;;;;;5043857;28;20065;-72
2023/12/17 01:40:41;;;;;;;13.07;2.83;;;;;;;;;;5053699;28;20041;-72
2023/12/17 01:43:08;;;;;;;11.15;2.50;;;;;;;;;;5055090;28;20044;-72
2023/12/17 01:45:36;;;;;;;10.25;2.80;;;;;;;;;;5041496;28;20402;-72
2023/12/17 01:48:04;;;;;;;12.00;2.97;;;;;;;;;;5056790;28;20051;-72
2023/12/17 01:50:31;;;;;;;7.72;2.50;;;;;;;;;;5036648;28;20144;-72
2023/12/17 01:53:00;;;;;;;9.90;2.28;;;;;;;;;;5051980;28;20041;-72
2023/12/17 01:55:28;;;;;;;12.70;2.45;;;;;;;;;;5037456;28;20511;-72
2023/12/17 01:57:55;;;;;;;16.83;2.30;;;;;;;;;;5036971;28;20049;-72
2023/12/17 02:00:23;;;;;;;14.68;2.78;;;;;;;;;;5051962;28;20044;-72
2023/12/17 02:02:50;;;;;;;11.48;2.70;;;;;;;;;;5052351;28;20121;-72
2023/12/17 02:05:17;;;;;;;10.23;2.67;;;;;;;;;;5051744;28;20059;-72
2023/12/17 02:07:45;;;;;;;15.15;3.30;;;;;;;;;;5057543;28;20459;-72
2023/12/17 02:10:13;;;;;;;12.82;2.78;;;;;;;;;;5055369;28;20044;-72
2023/12/17 02:12:40;;;;;;;10.02;2.72;;;;;;;;;;5061667;28;20102;-72
2023/12/17 02:15:08;;;;;;;10.05;3.08;;;;;;;;;;5059381;28;20048;-72
2023/12/17 02:17:36;;;;;;;11.52;3.30;;;;;;;;;;5052541;28;20408;-72
2023/12/17 02:20:03;;;;;;;9.43;2.85;;;;;;;;;;5054266;28;20040;-72
2023/12/17 02:22:31;;;;;;;12.35;3.67;;;;;;;;;;5051116;28;20483;-72
2023/12/17 02:25:00;;;;;;;10.95;3.00;;;;;;;;;;5038330;28;20133;-72
2023/12/17 02:27:28;;;;;;;16.65;3.45;;;;;;;;;;5036951;28;20067;-72
2023/12/17 02:29:56;;;;;;;13.50;3.53;;;;;;;;;;5047421;28;20049;-72
2023/12/17 02:32:23;;;;;;;8.88;2.55;;;;;;;;;;5050860;28;20048;-72
2023/12/17 02:34:50;;;;;;;11.18;2.47;;;;;;;;;;5027796;28;20045;-72
2023/12/17 02:37:18;;;;;;;6.70;2.22;;;;;;;;;;5049674;28;20037;-72
2023/12/17 02:39:45;;;;;;;7.45;2.50;;;;;;;;;;5045696;28;20049;-72
2023/12/17 02:42:14;;;;;;;11.45;2.65;;;;;;;;;;5051330;28;20060;-72
2023/12/17 02:44:41;;;;;;;8.10;2.67;;;;;;;;;;5061525;28;20068;-72
2023/12/17 02:47:08;;;;;;;14.75;2.95;;;;;;;;;;5056758;28;20410;-71
2023/12/17 02:49:35;;;;;;;11.52;3.05;;;;;;;;;;5051388;28;20127;-72
2023/12/17 02:52:03;;;;;;;9.63;3.35;;;;;;;;;;5054024;28;20400;-72
2023/12/17 02:54:30;;;;;;;9.15;2.70;;;;;;;;;;5050455;28;20057;-72
2023/12/17 02:56:57;;;;;;;14.85;3.13;;;;;;;;;;5050466;28;20053;-72
2023/12/17 02:59:26;;;;;;;13.68;2.63;;;;;;;;;;5033070;28;20049;-72
2023/12/17 03:01:53;;;;;;;10.70;2.95;;;;;;;;;;5040377;28;20056;-72
2023/12/17 03:04:20;;;;;;;9.32;2.75;;;;;;;;;;5055908;28;20048;-72
2023/12/17 03:06:48;;;;;;;10.82;2.78;;;;;;;;;;5043252;28;20049;-72
2023/12/17 03:09:15;;;;;;;13.93;2.63;;;;;;;;;;5058185;28;20535;-72
2023/12/17 03:11:43;;;;;;;14.15;2.88;;;;;;;;;;5041978;28;20077;-72
2023/12/17 03:14:10;;;;;;;7.60;2.67;;;;;;;;;;5050351;28;20064;-72
2023/12/17 03:16:38;;;;;;;11.77;2.75;;;;;;;;;;5056957;28;20404;-72
2023/12/17 03:19:06;;;;;;;12.43;2.90;;;;;;;;;;5066859;28;20049;-72
2023/12/17 03:21:33;;;;;;;12.00;3.13;;;;;;;;;;5033307;28;20372;-72
2023/12/17 03:24:01;;;;;;;9.82;2.70;;;;;;;;;;5043977;28;20072;-72
2023/12/17 03:26:28;;;;;;;13.55;2.70;;;;;;;;;;5044557;28;20515;-72
2023/12/17 03:28:55;;;;;;;12.13;2.60;;;;;;;;;;5047525;28;20091;-72
2023/12/17 03:31:22;;;;;;;11.73;2.55;;;;;;;;;;5052469;28;20049;-72
2023/12/17 03:33:51;;;;;;;8.63;2.63;;;;;;;;;;5047332;28;20048;-72
2023/12/17 03:36:18;;;;;;;8.95;2.47;;;;;;;;;;5033512;28;20045;-72
2023/12/17 03:38:46;;;;;;;10.18;2.80;;;;;;;;;;5055352;28;20044;-72
2023/12/17 03:41:21;;;;;;;12.63;2.75;;;;;;;;;;5051236;28;20049;-72
2023/12/17 03:43:48;;;;;;;7.55;2.70;;;;;;;;;;5054593;28;20138;-72
2023/12/17 03:46:15;;;;;;;9.43;2.75;;;;;;;;;;5059345;28;20055;-71
2023/12/17 03:48:42;;;;;;;7.28;2.40;;;;;;;;;;5048605;28;20079;-72
2023/12/17 03:51:11;;;;;;;12.07;2.88;;;;;;;;;;5057363;28;20048;-72
2023/12/17 03:53:38;;;;;;;8.98;2.75;;;;;;;;;;5052165;28;20045;-72
2023/12/17 03:56:09;;;;;;;6.82;2.55;;;;;;;;;;5048446;28;20051;-72
2023/12/17 03:58:36;;;;;;;9.57;3.30;;;;;;;;;;5038767;28;20080;-72
2023/12/17 04:01:04;;;;;;;6.22;2.70;;;;;;;;;;5055981;28;20045;-72
2023/12/17 04:03:31;;;;;;;12.20;2.75;;;;;;;;;;5056618;28;20044;-72
2023/12/17 04:05:59;;;;;;;10.00;2.45;;;;;;;;;;5052095;28;20045;-72
2023/12/17 04:08:28;;;;;;;11.50;2.47;;;;;;;;;;5053414;28;20403;-72
2023/12/17 04:10:56;;;;;;;8.50;3.08;;;;;;;;;;5047811;28;20044;-72
2023/12/17 04:13:23;;;;;;;9.18;3.08;;;;;;;;;;5050610;28;20071;-72
2023/12/17 04:15:50;;;;;;;9.13;2.65;;;;;;;;;;5055228;28;20052;-72
2023/12/17 04:18:17;;;;;;;9.65;3.50;;;;;;;;;;5051997;28;21331;-72
2023/12/17 04:20:45;;;;;;;8.07;2.90;;;;;;;;;;5032312;28;20051;-72
2023/12/17 04:23:11;;;;;;;12.40;2.95;;;;;;;;;;5054963;28;20059;-72
2023/12/17 04:25:40;;;;;;;14.45;3.35;;;;;;;;;;5031079;28;20135;-72
2023/12/17 04:28:07;;;;;;;10.70;3.05;;;;;;;;;;5048055;28;20060;-72
2023/12/17 04:30:34;;;;;;;17.10;3.40;;;;;;;;;;5052937;28;20049;-72
2023/12/17 04:33:01;;;;;;;7.03;3.00;;;;;;;;;;5050743;28;20079;-72
2023/12/17 04:35:29;;;;;;;11.07;3.05;;;;;;;;;;5033643;28;20049;-72
2023/12/17 04:37:56;;;;;;;12.32;3.78;;;;;;;;;;5052730;28;20041;-72
2023/12/17 04:40:23;;;;;;;7.20;3.13;;;;;;;;;;5057191;28;20036;-72
2023/12/17 04:42:52;;;;;;;12.32;3.42;;;;;;;;;;5063152;28;20045;-72
2023/12/17 04:45:19;;;;;;;10.82;3.42;;;;;;;;;;5053703;28;20052;-73
2023/12/17 04:47:46;;;;;;;9.25;3.65;;;;;;;;;;5045818;28;20524;-72
2023/12/17 04:50:14;;;;;;;10.32;3.20;;;;;;;;;;5035268;28;20057;-72
2023/12/17 04:52:41;;;;;;;15.30;4.40;;;;;;;;;;5035116;28;20061;-72
2023/12/17 04:55:08;;;;;;;11.63;3.58;;;;;;;;;;5049300;28;20500;-72
2023/12/17 04:57:35;;;;;;;10.57;3.40;;;;;;;;;;5028485;28;20045;-72
2023/12/17 05:00:05;;;;;;;9.02;3.28;;;;;;;;;;5033488;28;20123;-72
2023/12/17 05:02:32;;;;;;;11.63;3.30;;;;;;;;;;5061380;28;20400;-72
2023/12/17 05:05:00;;;;;;;10.15;3.55;;;;;;;;;;5055047;28;20049;-72
2023/12/17 05:07:27;;;;;;;9.10;3.47;;;;;;;;;;5058549;28;20055;-72
2023/12/17 05:09:54;;;;;;;11.73;3.53;;;;;;;;;;5058178;28;20064;-72
2023/12/17 05:12:21;;;;;;;12.38;3.90;;;;;;;;;;5053067;28;20132;-72
2023/12/17 05:14:49;;;;;;;13.20;4.30;;;;;;;;;;5032071;28;20060;-72
2023/12/17 05:17:17;;;;;;;10.13;3.30;;;;;;;;;;5059433;28;20059;-72
2023/12/17 05:19:45;;;;;;;13.82;3.83;;;;;;;;;;5056715;28;20048;-72
2023/12/17 05:22:12;;;;;;;10.85;4.13;;;;;;;;;;5053884;28;20052;-72
2023/12/17 05:24:39;;;;;;;12.23;4.43;;;;;;;;;;5053033;28;20045;-72
2023/12/17 05:27:06;;;;;;;11.43;4.22;;;;;;;;;;5057835;28;20048;-72
2023/12/17 05:29:33;;;;;;;14.75;4.53;;;;;;;;;;5032405;28;20072;-72
2023/12/17 05:32:01;;;;;;;16.15;5.40;;;;;;;;;;5059816;28;20503;-72
2023/12/17 05:34:29;;;;;;;14.98;5.80;;;;;;;;;;5055193;28;20045;-72
2023/12/17 05:36:57;;;;;;;15.45;5.40;;;;;;;;;;5038501;28;20127;-72
2023/12/17 05:39:24;;;;;;;17.58;6.40;;;;;;;;;;5059882;28;20408;-72
2023/12/17 05:41:51;;;;;;;18.27;6.18;;;;;;;;;;5063877;28;20036;-73
2023/12/17 05:44:18;;;;;;;18.50;6.20;;;;;;;;;;5065990;28;20480;-72
2023/12/17 05:46:46;;;;;;;15.57;6.13;;;;;;;;;;5042437;28;20048;-72
2023/12/17 05:49:13;;;;;;;11.75;6.47;;;;;;;;;;5046713;28;20060;-72
2023/12/17 05:51:44;;;;;;;20.15;7.55;;;;;;;;;;5055909;28;20041;-72
2023/12/17 05:54:11;;;;;;;17.73;7.28;;;;;;;;;;5036883;28;20052;-72
2023/12/17 05:56:42;;;;;;;15.30;6.82;;;;;;;;;;5032667;28;20049;-72
2023/12/17 05:59:09;;;;;;;16.40;6.32;;;;;;;;;;5040051;28;20071;-73
2023/12/17 06:01:37;;;;;;;16.70;7.15;;;;;;;;;;5050539;28;20049;-72
2023/12/17 06:04:04;;;;;;;15.63;7.00;;;;;;;;;;5056206;28;20098;-72
2023/12/17 06:06:31;;;;;;;18.88;7.28;;;;;;;;;;5039959;28;20404;-72
2023/12/17 06:09:00;;;;;;;19.92;7.90;;;;;;;;;;5034629;28;20052;-72
2023/12/17 06:11:27;;;;;;;22.13;8.23;;;;;;;;;;5044768;28;20053;-72
2023/12/17 06:13:54;;;;;;;20.92;8.15;;;;;;;;;;5048228;28;20052;-72
2023/12/17 06:16:22;;;;;;;16.27;7.03;;;;;;;;;;5051485;28;20046;-72
2023/12/17 06:18:52;;;;;;;19.08;7.25;;;;;;;;;;5051282;28;20139;-72
2023/12/17 06:21:23;;;;;;;21.60;7.47;;;;;;;;;;5046786;28;20036;-72
2023/12/17 06:23:51;;;;;;;20.40;8.52;;;;;;;;;;5032475;28;20370;-72
2023/12/17 06:26:20;;;;;;;18.95;8.38;;;;;;;;;;5049937;28;20037;-72
2023/12/17 06:28:47;;;;;;;18.48;9.27;;;;;;;;;;5031430;28;20068;-72
2023/12/17 06:31:15;;;;;;;26.42;9.77;;;;;;;;;;5060912;28;20076;-72
2023/12/17 06:33:42;;;;;;;17.08;8.55;;;;;;;;;;5056551;28;20500;-72
2023/12/17 06:36:10;;;;;;;25.65;9.20;;;;;;;;;;5059896;28;20052;-72
2023/12/17 06:38:37;;;;;;;23.33;9.30;;;;;;;;;;5053284;28;20061;-73
2023/12/17 06:41:04;;;;;;;20.52;8.23;;;;;;;;;;5061135;28;20400;-72
2023/12/17 06:43:33;;;;;;;22.42;8.32;;;;;;;;;;5031188;28;20045;-72
2023/12/17 06:46:03;;;;;;;24.50;8.57;;;;;;;;;;5040408;28;20055;-72
2023/12/17 06:48:31;;;;;;;27.60;7.80;;;;;;;;;;5036311;28;20045;-72
2023/12/17 06:50:58;;;;;;;23.20;8.00;;;;;;;;;;5061473;28;20068;-72
2023/12/17 06:53:25;;;;;;;19.63;8.30;;;;;;;;;;5054334;28;20051;-72
2023/12/17 06:55:53;;;;;;;27.95;7.97;;;;;;;;;;5038864;28;20044;-72
2023/12/17 06:58:20;;;;;;;18.33;6.97;;;;;;;;;;5052099;28;20056;-72
2023/12/17 07:00:49;;;;;;;26.27;8.07;;;;;;;;;;5057050;28;20060;-72
2023/12/17 07:03:18;;;;;;;22.85;7.13;;;;;;;;;;5048797;28;20108;-72
2023/12/17 07:05:45;;;;;;;15.18;6.50;;;;;;;;;;5051625;28;20049;-72
2023/12/17 07:08:13;;;;;;;20.48;6.60;;;;;;;;;;5055414;28;20103;-72
2023/12/17 07:10:40;;;;;;;20.45;6.65;;;;;;;;;;5050946;28;20143;-72
2023/12/17 07:13:07;;;;;;;23.83;6.68;;;;;;;;;;5046691;28;20057;-72
2023/12/17 07:15:35;;;;;;;19.50;6.63;;;;;;;;;;5044960;28;20071;-72
2023/12/17 07:18:04;;;;;;;20.52;7.00;;;;;;;;;;5030624;28;20045;-72
2023/12/17 07:20:31;;;;;;;22.55;6.70;;;;;;;;;;5057120;28;20041;-72
2023/12/17 07:22:58;;;;;;;13.52;6.13;;;;;;;;;;5033563;28;20052;-72
2023/12/17 07:25:27;;;;;;;23.48;6.22;;;;;;;;;;5030154;28;20053;-72
2023/12/17 07:27:54;;;;;;;28.30;6.40;;;;;;;;;;5034057;28;20110;-72
2023/12/17 07:30:21;;;;;;;19.20;5.32;;;;;;;;;;5052532;28;20052;-72
2023/12/17 07:32:49;;;;;;;19.85;5.85;;;;;;;;;;5034619;28;20042;-72
2023/12/17 07:35:17;;;;;;;18.00;5.05;;;;;;;;;;5036750;28;20057;-72
2023/12/17 07:37:45;;;;;;;22.17;6.57;;;;;;;;;;5047196;28;20498;-72
2023/12/17 07:40:12;;;;;;;21.50;5.03;;;;;;;;;;5047637;28;20056;-72
2023/12/17 07:42:39;;;;;;;21.02;5.55;;;;;;;;;;5047001;28;20045;-72
2023/12/17 07:45:07;;;;;;;18.65;5.95;;;;;;;;;;5026583;28;20058;-72
2023/12/17 07:47:35;;;;;;;26.55;6.15;;;;;;;;;;5047158;28;20044;-72
2023/12/17 07:50:02;;;;;;;20.85;6.90;;;;;;;;;;5051807;28;20047;-72
2023/12/17 07:52:31;;;;;;;19.67;6.68;;;;;;;;;;5049762;28;20041;-72
2023/12/17 07:54:58;;;;;;;22.67;7.05;;;;;;;;;;5052933;28;20409;-72
2023/12/17 07:57:25;;;;;;;23.35;8.23;;;;;;;;;;5061023;28;20053;-73
2023/12/17 07:59:52;;;;;;;21.65;8.52;;;;;;;;;;5049381;28;20044;-72
2023/12/17 08:02:20;;;;;;;30.13;8.75;;;;;;;;;;5055882;28;20045;-72
2023/12/17 08:04:48;;;;;;;23.23;7.60;;;;;;;;;;5056154;28;20056;-72
2023/12/17 08:07:15;;;;;;;25.05;8.38;;;;;;;;;;5054625;28;20507;-72
2023/12/17 08:09:44;;;;;;;22.50;8.95;;;;;;;;;;5034467;28;20056;-72
2023/12/17 08:12:12;;;;;;;28.02;10.43;;;;;;;;;;5049780;28;20075;-72
2023/12/17 08:14:41;;;;;;;23.65;8.85;;;;;;;;;;5049007;28;20084;-72
2023/12/17 08:17:09;;;;;;;21.33;9.63;;;;;;;;;;5031657;28;20460;-72
2023/12/17 08:19:38;;;;;;;22.70;8.73;;;;;;;;;;5027990;28;20045;-72
2023/12/17 08:22:05;;;;;;;29.10;8.70;;;;;;;;;;5039622;28;20102;-73
2023/12/17 08:24:33;;;;;;;24.27;8.43;;;;;;;;;;5054013;28;20631;-72
2023/12/17 08:27:03;;;;;;;20.38;8.57;;;;;;;;;;5059757;28;20047;-73
2023/12/17 08:29:30;;;;;;;22.05;9.27;;;;;;;;;;5031949;28;20045;-72
2023/12/17 08:31:57;;;;;;;27.08;10.05;;;;;;;;;;5058835;28;20053;-72
2023/12/17 08:34:28;;;;;;;28.52;9.00;;;;;;;;;;5045813;28;20511;-72
2023/12/17 08:36:56;;;;;;;24.35;9.45;;;;;;;;;;5049671;28;20061;-72
2023/12/17 08:39:25;;;;;;;22.15;9.07;;;;;;;;;;5055657;28;20098;-72
2023/12/17 08:41:53;;;;;;;25.85;8.55;;;;;;;;;;5037934;28;20392;-72
2023/12/17 08:44:23;;;;;;;20.58;8.18;;;;;;;;;;5060400;28;20055;-73
2023/12/17 08:46:51;;;;;;;18.58;7.07;;;;;;;;;;5060088;28;20126;-72
2023/12/17 08:49:18;;;;;;;21.83;7.75;;;;;;;;;;5037077;28;20057;-72
2023/12/17 08:51:46;;;;;;;20.10;7.30;;;;;;;;;;5048485;28;20044;-73
2023/12/17 08:54:13;;;;;;;21.83;7.88;;;;;;;;;;5043931;28;20106;-72
2023/12/17 08:56:41;;;;;;;21.58;6.90;;;;;;;;;;5049994;28;20056;-72
2023/12/17 08:59:08;;;;;;;21.35;6.03;;;;;;;;;;5053425;28;20063;-72
2023/12/17 09:01:37;;;;;;;18.25;6.15;;;;;;;;;;5047520;28;20045;-72
2023/12/17 09:04:04;;;;;;;19.65;5.53;;;;;;;;;;5051379;28;20492;-73
2023/12/17 09:06:31;;;;;;;24.15;5.88;;;;;;;;;;5031772;28;20045;-72
2023/12/17 09:08:59;;;;;;;18.02;5.60;;;;;;;;;;5053835;28;20055;-72
2023/12/17 09:11:26;;;;;;;22.45;6.18;;;;;;;;;;5048126;28;20107;-72
2023/12/17 09:13:53;;;;;;;16.75;6.30;;;;;;;;;;5028829;28;20071;-72
2023/12/17 09:16:21;;;;;;;19.15;5.97;;;;;;;;;;5025092;28;20054;-72
2023/12/17 09:18:50;;;;;;;24.13;6.47;;;;;;;;;;5051484;28;20515;-72
2023/12/17 09:21:17;;;;;;;33.58;6.85;;;;;;;;;;5024733;28;20345;-72
2023/12/17 09:23:45;;;;;;;27.15;6.00;;;;;;;;;;5049470;28;20073;-72
2023/12/17 09:26:12;;;;;;;23.88;6.32;;;;;;;;;;5039622;28;20056;-72
2023/12/17 09:28:39;;;;;;;28.30;5.78;;;;;;;;;;5048545;28;20377;-71
2023/12/17 09:31:08;;;;;;;26.50;6.03;;;;;;;;;;5056591;28;20473;-72
2023/12/17 09:33:36;;;;;;;23.95;6.57;;;;;;;;;;5045748;28;20543;-72
2023/12/17 09:36:05;;;;;;;29.83;6.97;;;;;;;;;;5031261;28;20075;-72
2023/12/17 09:38:32;;;;;;;24.50;6.30;;;;;;;;;;5046160;28;20048;-72
2023/12/17 09:40:59;;;;;;;26.05;5.97;;;;;;;;;;5055324;28;20041;-72
2023/12/17 09:43:27;;;;;;;25.00;6.53;;;;;;;;;;5052470;28;20075;-72
2023/12/17 09:45:54;;;;;;;20.42;6.03;;;;;;;;;;5048253;28;20049;-72
2023/12/17 09:48:23;;;;;;;21.13;6.20;;;;;;;;;;5054570;28;20111;-72
2023/12/17 09:50:50;;;;;;;22.98;6.13;;;;;;;;;;5050102;28;20480;-72
2023/12/17 09:53:19;;;;;;;23.40;7.15;;;;;;;;;;5051610;28;20052;-71
2023/12/17 09:55:46;;;;;;;33.50;8.10;;;;;;;;;;5034584;28;20053;-72
2023/12/17 09:58:14;;;;;;;28.92;8.73;;;;;;;;;;5053938;28;20071;-72
2023/12/17 10:00:42;;;;;;;29.67;8.15;;;;;;;;;;5030113;28;20111;-72
2023/12/17 10:03:14;;;;;;;29.75;6.70;;;;;;;;;;5049251;28;20052;-72
2023/12/17 10:05:42;;;;;;;31.55;7.38;;;;;;;;;;5045915;28;20127;-72
2023/12/17 10:08:12;;;;;;;26.67;7.63;;;;;;;;;;5036282;28;20057;-72
2023/12/17 10:10:41;;;;;;;30.13;7.30;;;;;;;;;;5057958;28;20083;-72
2023/12/17 10:13:09;;;;;;;22.52;6.80;;;;;;;;;;5029908;28;20053;-72
2023/12/17 10:15:37;;;;;;;28.23;7.57;;;;;;;;;;5060308;28;20396;-72
2023/12/17 10:18:05;;;;;;;22.08;5.90;;;;;;;;;;5024568;28;20091;-72
2023/12/17 10:20:32;;;;;;;31.48;6.65;;;;;;;;;;5048496;28;20053;-72
2023/12/17 10:22:59;;;;;;;26.98;6.15;;;;;;;;;;5056149;28;20048;-72
2023/12/17 10:25:27;;;;;;;26.20;6.32;;;;;;;;;;5039382;28;20130;-72
2023/12/17 10:27:57;;;;;;;24.02;7.43;;;;;;;;;;5030188;28;20041;-72
2023/12/17 10:30:27;;;;;;;26.67;6.25;;;;;;;;;;5052692;28;20109;-73
2023/12/17 10:32:55;;;;;;;25.13;7.18;;;;;;;;;;5067188;28;20051;-72
2023/12/17 10:35:23;;;;;;;24.75;6.40;;;;;;;;;;5053732;28;20060;-72
2023/12/17 10:37:53;;;;;;;29.20;6.82;;;;;;;;;;5060112;28;20053;-72
2023/12/17 10:40:21;;;;;;;30.65;6.80;;;;;;;;;;5038610;28;20060;-72
2023/12/17 10:42:49;;;;;;;31.33;7.82;;;;;;;;;;5044812;28;20051;-72
2023/12/17 10:45:19;;;;;;;29.52;8.43;;;;;;;;;;5058080;28;20049;-72
2023/12/17 10:47:47;;;;;;;36.53;7.68;;;;;;;;;;5051361;28;20088;-70
2023/12/17 10:50:15;;;;;;;28.30;8.13;;;;;;;;;;5050873;28;20053;-72
2023/12/17 10:52:43;;;;;;;28.48;6.82;;;;;;;;;;5054988;28;20041;-72
2023/12/17 10:55:11;;;;;;;36.15;7.90;;;;;;;;;;5045914;28;20076;-73
2023/12/17 10:57:41;;;;;;;25.30;6.70;;;;;;;;;;5027349;28;20132;-72
2023/12/17 11:00:09;;;;;;;33.50;7.63;;;;;;;;;;5040210;28;20052;-72
2023/12/17 11:02:38;;;;;;;36.58;8.63;;;;;;;;;;5048102;28;20479;-72
2023/12/17 11:05:06;;;;;;;24.17;7.13;;;;;;;;;;5047467;28;20052;-72
2023/12/17 11:07:33;;;;;;;26.15;7.05;;;;;;;;;;5036377;28;20052;-73
2023/12/17 11:10:01;;;;;;;33.80;7.43;;;;;;;;;;5030094;28;20051;-70
2023/12/17 11:12:28;;;;;;;24.65;6.72;;;;;;;;;;5039658;28;20080;-72
2023/12/17 11:14:55;;;;;;;25.50;5.78;;;;;;;;;;5042205;28;20476;-71
2023/12/17 11:17:23;;;;;;;23.95;5.60;;;;;;;;;;5026786;28;20053;-72
2023/12/17 11:19:56;;;;;;;25.75;6.00;;;;;;;;;;5025355;28;20415;-73
2023/12/17 11:22:23;;;;;;;24.67;6.38;;;;;;;;;;5024041;28;20080;-72
2023/12/17 11:24:51;;;;;;;24.90;6.88;;;;;;;;;;5042636;28;20046;-72
2023/12/17 11:27:22;;;;;;;25.15;6.13;;;;;;;;;;5028711;28;20060;-72
2023/12/17 11:29:49;;;;;;;31.52;7.00;;;;;;;;;;5044968;28;20102;-72
2023/12/17 11:32:18;;;;;;;25.05;5.72;;;;;;;;;;5042756;28;20060;-72
2023/12/17 11:34:48;;;;;;;23.48;6.55;;;;;;;;;;5024265;28;20060;-72
2023/12/17 11:37:19;;;;;;;36.25;9.35;;;;;;;;;;5022084;28;20053;-72
2023/12/17 11:39:48;;;;;;;27.02;6.78;;;;;;;;;;5043173;28;20045;-72
2023/12/17 11:42:16;;;;;;;26.77;6.68;;;;;;;;;;5026097;28;20417;-72
2023/12/17 11:44:44;;;;;;;26.40;6.07;;;;;;;;;;5048174;28;20128;-72
2023/12/17 11:47:11;;;;;;;23.95;6.97;;;;;;;;;;5058768;28;20179;-72
2023/12/17 11:49:39;;;;;;;23.35;6.85;;;;;;;;;;5055782;28;20460;-72
2023/12/17 11:52:11;;;;;;;31.23;7.72;;;;;;;;;;5044348;28;20132;-72
2023/12/17 11:54:39;;;;;;;25.00;7.30;;;;;;;;;;5047248;28;20129;-72
2023/12/17 11:57:18;;;;;;;23.45;8.35;;;;;;;;;;5045443;28;20058;-72
2023/12/17 11:59:45;;;;;;;18.58;7.50;;;;;;;;;;5046475;28;20053;-72
2023/12/17 12:02:13;;;;;;;18.15;7.20;;;;;;;;;;5050268;28;20045;-72
2023/12/17 12:04:41;;;;;;;22.10;8.18;;;;;;;;;;5053667;28;20521;-72
2023/12/17 12:07:09;;;;;;;23.35;7.80;;;;;;;;;;5048580;28;20055;-72
2023/12/17 12:09:36;;;;;;;26.35;8.02;;;;;;;;;;5054218;28;20044;-72
2023/12/17 12:12:15;;;;;;;21.33;7.13;;;;;;;;;;5031947;28;20048;-72
2023/12/17 12:14:43;;;;;;;19.45;9.00;;;;;;;;;;5049520;28;20404;-73
2023/12/17 12:17:32;;;;;;;22.75;8.25;;;;;;;;;;5029941;28;20049;-72
2023/12/17 12:19:59;;;;;;;23.23;8.20;;;;;;;;;;5051209;28;20053;-72
2023/12/17 12:22:28;;;;;;;23.38;8.13;;;;;;;;;;5033260;28;20493;-72
2023/12/17 12:24:56;;;;;;;20.52;7.65;;;;;;;;;;5049957;28;20045;-72
2023/12/17 12:27:25;;;;;;;23.90;8.98;;;;;;;;;;5047764;28;20048;-72
2023/12/17 12:29:53;;;;;;;22.17;8.27;;;;;;;;;;5035444;28;20059;-72
2023/12/17 12:32:27;;;;;;;25.65;8.55;;;;;;;;;;5056485;28;20071;-72
2023/12/17 12:34:55;;;;;;;18.17;7.38;;;;;;;;;;5048736;28;20415;-72
2023/12/17 12:37:32;;;;;;;23.30;9.25;;;;;;;;;;5048151;28;20053;-72
2023/12/17 12:39:59;;;;;;;23.38;7.93;;;;;;;;;;5032734;28;20465;-72
2023/12/17 12:42:28;;;;;;;25.77;8.27;;;;;;;;;;5050883;28;20052;-72
2023/12/17 12:44:56;;;;;;;26.88;9.00;;;;;;;;;;5052571;28;20041;-72
2023/12/17 12:47:23;;;;;;;17.83;7.50;;;;;;;;;;5055312;28;20048;-71
2023/12/17 12:49:50;;;;;;;20.52;8.20;;;;;;;;;;5045428;28;20056;-72
2023/12/17 12:52:18;;;;;;;24.80;7.70;;;;;;;;;;5047844;28;20056;-72
2023/12/17 12:54:47;;;;;;;23.67;8.50;;;;;;;;;;5051013;28;20412;-73
2023/12/17 12:57:14;;;;;;;30.77;9.40;;;;;;;;;;5048919;28;20045;-72
2023/12/17 12:59:43;;;;;;;20.13;7.95;;;;;;;;;;5056286;28;20049;-72
2023/12/17 13:02:11;;;;;;;25.73;8.52;;;;;;;;;;5046526;28;20049;-72
2023/12/17 13:04:38;;;;;;;21.15;8.73;;;;;;;;;;5032317;28;20052;-72
2023/12/17 13:07:05;;;;;;;24.38;9.20;;;;;;;;;;5050145;28;20045;-72
2023/12/17 13:09:33;;;;;;;21.10;7.95;;;;;;;;;;5033515;28;20442;-72
2023/12/17 13:12:00;;;;;;;23.75;7.85;;;;;;;;;;5047320;28;20436;-72
2023/12/17 13:14:30;;;;;;;20.60;7.45;;;;;;;;;;5049111;28;20114;-72
2023/12/17 13:16:58;;;;;;;19.35;8.10;;;;;;;;;;5043859;28;20040;-72
2023/12/17 13:19:26;;;;;;;21.17;7.47;;;;;;;;;;5047855;28;20083;-72
2023/12/17 13:21:53;;;;;;;16.27;6.30;;;;;;;;;;5051321;28;20045;-72
2023/12/17 13:24:21;;;;;;;14.93;6.45;;;;;;;;;;5053734;28;20080;-72
2023/12/17 13:26:49;;;;;;;17.25;7.05;;;;;;;;;;5053640;28;20081;-72
2023/12/17 13:29:16;;;;;;;20.55;6.93;;;;;;;;;;5051365;28;20523;-72
2023/12/17 13:31:43;;;;;;;16.33;6.47;;;;;;;;;;5057998;28;20059;-72
2023/12/17 13:34:12;;;;;;;22.35;7.38;;;;;;;;;;5053466;28;20044;-72
2023/12/17 13:36:39;;;;;;;21.52;7.30;;;;;;;;;;5059861;28;20053;-72
2023/12/17 13:39:06;;;;;;;20.40;7.75;;;;;;;;;;5059681;28;20083;-72
2023/12/17 13:41:34;;;;;;;20.08;7.03;;;;;;;;;;5056680;28;20056;-72
2023/12/17 13:44:01;;;;;;;21.65;7.75;;;;;;;;;;5046574;28;20413;-72
2023/12/17 13:46:28;;;;;;;23.45;8.25;;;;;;;;;;5058171;28;20053;-72
2023/12/17 13:48:55;;;;;;;19.27;7.03;;;;;;;;;;5057186;28;20049;-72
2023/12/17 13:51:26;;;;;;;22.00;6.97;;;;;;;;;;5041179;28;20054;-71
2023/12/17 13:53:53;;;;;;;17.35;7.63;;;;;;;;;;5056954;28;20048;-72
2023/12/17 13:56:20;;;;;;;23.20;9.38;;;;;;;;;;5055882;28;20048;-72
2023/12/17 13:58:48;;;;;;;19.35;7.07;;;;;;;;;;5050266;28;20048;-72
2023/12/17 14:01:19;;;;;;;22.05;7.53;;;;;;;;;;5052255;28;20056;-72
2023/12/17 14:03:47;;;;;;;16.25;6.40;;;;;;;;;;5056737;28;20048;-72
2023/12/17 14:06:15;;;;;;;17.42;6.78;;;;;;;;;;5054823;28;20053;-72
2023/12/17 14:08:46;;;;;;;16.80;7.30;;;;;;;;;;5049143;28;20050;-72
2023/12/17 14:11:14;;;;;;;22.45;7.35;;;;;;;;;;5046950;28;20070;-72
2023/12/17 14:13:41;;;;;;;17.75;6.10;;;;;;;;;;5054444;28;20048;-72
2023/12/17 14:16:10;;;;;;;17.67;6.32;;;;;;;;;;5056968;28;20052;-72
2023/12/17 14:18:37;;;;;;;18.25;6.72;;;;;;;;;;5043452;28;20080;-72
2023/12/17 14:21:05;;;;;;;14.52;6.05;;;;;;;;;;5038846;28;20083;-72
2023/12/17 14:23:32;;;;;;;20.65;6.18;;;;;;;;;;5049152;28;20051;-72
2023/12/17 14:26:02;;;;;;;17.58;5.75;;;;;;;;;;5057037;28;20400;-72
2023/12/17 14:28:29;;;;;;;17.80;5.68;;;;;;;;;;5053872;28;20506;-72
2023/12/17 14:30:57;;;;;;;26.23;6.60;;;;;;;;;;5029103;28;20049;-72
2023/12/17 14:33:24;;;;;;;19.65;6.45;;;;;;;;;;5046463;28;20076;-72
2023/12/17 14:35:52;;;;;;;15.45;5.53;;;;;;;;;;5058438;28;20110;-72